Time;durP1;ratioP1;P1;durP2;ratioP2;P2;SDS_P1;SDS_P2;PMS_P1;PMS_P2;Temp;Humidity;BMP_temperature;BMP_pressure;BME280_temperature;BME280_humidity;BME280_pressure;Samples;Min_cycle;Max_cycle;Signal;HPM_P1;HPM_P2
2021/07/28 00:01:28;;;;;;;5.38;3.40;;;22.90;65.90;;;;;;20991161;28;20036;-20
2021/07/28 00:11:29;;;;;;;4.63;3.17;;;22.80;65.70;;;;;;21000865;28;20028;-20
2021/07/28 00:31:49;;;;;;;6.63;3.60;;;22.80;65.60;;;;;;20999062;28;20071;-20
2021/07/28 00:41:49;;;;;;;5.93;2.90;;;22.70;65.40;;;;;;20998501;28;20035;-20
2021/07/28 00:51:51;;;;;;;5.28;3.60;;;22.80;65.60;;;;;;21000532;28;20083;-20
2021/07/28 01:01:52;;;;;;;4.88;3.15;;;22.80;65.50;;;;;;21012071;28;20504;-20
2021/07/28 01:11:53;;;;;;;5.93;3.00;;;22.70;65.20;;;;;;21009445;28;20377;-20
2021/07/28 01:21:54;;;;;;;5.35;3.30;;;22.70;65.10;;;;;;21005947;28;20040;-20
2021/07/28 01:31:56;;;;;;;7.88;3.08;;;22.70;65.20;;;;;;21000352;28;20024;-20
2021/07/28 01:42:00;;;;;;;8.38;3.90;;;22.70;65.00;;;;;;20994771;28;20107;-20
2021/07/28 01:52:01;;;;;;;5.85;2.95;;;22.70;65.00;;;;;;20992490;28;20035;-20
2021/07/28 02:02:02;;;;;;;5.97;3.00;;;22.70;65.00;;;;;;20991452;28;20501;-20
2021/07/28 02:12:02;;;;;;;7.13;2.83;;;22.70;64.90;;;;;;20989962;28;20024;-20
2021/07/28 02:22:03;;;;;;;3.97;2.87;;;22.70;64.70;;;;;;20990376;28;20445;-20
2021/07/28 02:32:04;;;;;;;4.68;2.95;;;22.70;64.70;;;;;;20988943;28;20532;-20
2021/07/28 02:42:05;;;;;;;6.38;3.05;;;22.70;64.60;;;;;;20988744;28;20028;-20
2021/07/28 02:52:06;;;;;;;6.65;3.00;;;22.70;64.60;;;;;;20987774;28;20029;-20
2021/07/28 03:02:06;;;;;;;10.63;3.72;;;22.60;64.10;;;;;;20993152;28;20139;-20
2021/07/28 03:12:07;;;;;;;6.50;3.75;;;22.60;63.80;;;;;;20986276;28;20052;-20
2021/07/28 03:22:08;;;;;;;7.43;4.05;;;22.60;63.60;;;;;;20985751;28;20493;-21
2021/07/28 03:32:08;;;;;;;7.85;3.15;;;22.60;63.50;;;;;;20984729;28;20104;-21
2021/07/28 03:42:09;;;;;;;7.43;2.90;;;22.60;63.70;;;;;;20985315;28;20029;-20
2021/07/28 03:52:09;;;;;;;6.03;3.03;;;22.50;63.50;;;;;;20984399;28;20032;-20
2021/07/28 04:02:12;;;;;;;10.13;2.80;;;22.60;63.90;;;;;;20983251;28;20041;-20
2021/07/28 04:12:13;;;;;;;4.68;2.50;;;22.50;63.80;;;;;;20983621;28;20055;-19
2021/07/28 04:22:13;;;;;;;7.85;3.00;;;22.50;63.70;;;;;;20983909;28;20021;-20
2021/07/28 04:32:14;;;;;;;6.10;3.08;;;22.50;63.60;;;;;;20982902;28;20099;-20
2021/07/28 04:42:14;;;;;;;4.65;2.95;;;22.50;63.30;;;;;;20983858;28;20039;-20
2021/07/28 04:52:15;;;;;;;4.47;2.97;;;22.50;63.00;;;;;;20998135;28;20055;-20
2021/07/28 05:02:16;;;;;;;12.35;4.47;;;22.40;62.80;;;;;;20995511;28;20438;-20
2021/07/28 05:12:16;;;;;;;4.72;2.95;;;22.50;62.90;;;;;;20993346;28;20635;-20
2021/07/28 05:22:17;;;;;;;11.23;3.50;;;22.50;62.90;;;;;;20988630;28;20033;-20
2021/07/28 05:32:17;;;;;;;4.38;3.63;;;22.40;62.90;;;;;;20994023;28;20090;-20
2021/07/28 05:42:18;;;;;;;11.82;3.97;;;22.50;63.30;;;;;;20992518;28;20024;-20
2021/07/28 05:52:18;;;;;;;53.17;15.32;;;22.50;63.20;;;;;;20990799;28;20032;-20
2021/07/28 06:02:19;;;;;;;26.55;9.05;;;22.40;63.00;;;;;;20990627;28;20032;-20
2021/07/28 06:12:20;;;;;;;16.88;7.20;;;22.40;63.70;;;;;;20985048;28;20040;-20
2021/07/28 06:22:20;;;;;;;20.60;6.13;;;22.50;64.20;;;;;;20987582;28;20112;-21
2021/07/28 06:32:21;;;;;;;10.52;4.63;;;22.40;63.20;;;;;;20987127;28;20877;-20
2021/07/28 06:42:21;;;;;;;10.90;4.55;;;22.40;63.20;;;;;;20986907;28;20047;-20
2021/07/28 06:52:22;;;;;;;8.05;4.40;;;22.40;63.50;;;;;;20987893;28;20086;-20
2021/07/28 07:02:23;;;;;;;7.38;4.22;;;22.40;62.40;;;;;;21009070;22;20381;-19
2021/07/28 07:12:24;;;;;;;11.80;3.90;;;22.40;62.60;;;;;;20972897;28;20526;-21
2021/07/28 07:22:24;;;;;;;5.85;3.97;;;22.40;61.80;;;;;;20946783;28;20458;-20
2021/07/28 07:32:29;;;;;;;9.70;3.83;;;22.40;62.50;;;;;;20927227;28;20040;-19
2021/07/28 07:42:30;;;;;;;9.18;4.00;;;22.30;62.90;;;;;;20961532;28;20031;-19
2021/07/28 07:52:30;;;;;;;7.65;3.28;;;22.40;63.00;;;;;;20984434;28;20032;-20
2021/07/28 08:02:33;;;;;;;18.55;5.00;;;22.40;62.90;;;;;;20982233;28;20037;-20
2021/07/28 08:12:34;;;;;;;11.35;4.57;;;22.40;63.00;;;;;;20921494;28;20047;-20
2021/07/28 08:22:35;;;;;;;12.35;4.38;;;22.40;62.70;;;;;;20951020;28;20064;-20
2021/07/28 08:32:35;;;;;;;8.45;4.15;;;22.40;62.80;;;;;;20956383;28;20409;-21
2021/07/28 08:42:37;;;;;;;13.98;4.40;;;22.50;63.30;;;;;;20957880;28;20036;-19
2021/07/28 08:52:39;;;;;;;15.93;5.35;;;22.40;63.20;;;;;;20957544;28;20119;-21
2021/07/28 09:02:41;;;;;;;10.50;4.43;;;22.50;63.30;;;;;;20954554;28;20452;-20
2021/07/28 09:12:43;;;;;;;8.98;4.57;;;22.50;63.20;;;;;;20958486;28;20040;-20
2021/07/28 09:22:44;;;;;;;16.38;5.20;;;22.60;63.30;;;;;;20934902;28;20025;-20
2021/07/28 09:33:01;;;;;;;8.77;4.22;;;22.60;63.30;;;;;;20988077;28;20044;-20
2021/07/28 09:43:05;;;;;;;10.00;4.32;;;22.60;63.30;;;;;;21001594;28;20028;-20
2021/07/28 09:53:08;;;;;;;6.43;4.38;;;22.70;63.40;;;;;;21005791;28;20031;-20
2021/07/28 10:03:09;;;;;;;4.97;4.15;;;22.70;63.40;;;;;;21000404;28;20036;-20
2021/07/28 10:13:09;;;;;;;14.18;4.57;;;22.70;63.50;;;;;;20995790;28;20075;-20
2021/07/28 10:23:10;;;;;;;14.43;5.40;;;22.70;64.10;;;;;;20994733;28;20027;-20
2021/07/28 10:33:26;;;;;;;21.55;6.88;;;22.70;64.70;;;;;;21001108;28;20054;-20
2021/07/28 10:43:27;;;;;;;18.45;6.57;;;22.80;64.30;;;;;;20992259;28;20032;-20
2021/07/28 10:53:47;;;;;;;13.77;5.47;;;22.80;64.20;;;;;;20991704;28;20059;-20
2021/07/28 11:03:47;;;;;;;17.48;4.90;;;22.80;64.20;;;;;;20988715;28;20574;-19
2021/07/28 11:13:48;;;;;;;12.38;5.57;;;22.80;64.30;;;;;;20982848;28;20087;-21
2021/07/28 11:23:49;;;;;;;14.57;4.90;;;22.80;64.50;;;;;;20988729;28;20488;-20
2021/07/28 11:33:49;;;;;;;12.55;5.15;;;22.80;64.60;;;;;;20982239;28;20069;-21
2021/07/28 11:43:56;;;;;;;10.33;4.97;;;22.80;64.60;;;;;;20937832;28;20033;-20
2021/07/28 11:54:07;;;;;;;22.05;6.00;;;22.80;64.60;;;;;;20932851;28;20051;-21
2021/07/28 12:04:08;;;;;;;28.23;6.65;;;22.90;65.00;;;;;;20941335;28;20032;-20
2021/07/28 12:14:09;;;;;;;8.88;5.13;;;22.90;66.00;;;;;;20963900;28;20025;-20
2021/07/28 12:24:09;;;;;;;11.15;5.18;;;23.00;66.40;;;;;;20962846;28;20114;-20
2021/07/28 12:34:20;;;;;;;13.02;4.78;;;23.00;66.80;;;;;;20929888;28;20037;-19
2021/07/28 12:44:20;;;;;;;10.82;5.55;;;23.00;66.70;;;;;;20943558;28;20048;-19
2021/07/28 12:54:21;;;;;;;8.40;4.13;;;23.00;66.50;;;;;;20927737;28;20539;-19
2021/07/28 13:04:21;;;;;;;9.68;4.93;;;22.90;66.80;;;;;;20990560;28;20459;-20
2021/07/28 13:14:22;;;;;;;16.73;5.18;;;23.00;66.90;;;;;;21085673;22;20471;-19
2021/07/28 13:24:22;;;;;;;24.55;4.68;;;23.00;67.60;;;;;;21034896;28;20098;-20
2021/07/28 13:34:23;;;;;;;26.50;4.75;;;23.00;67.60;;;;;;21028317;28;20036;-20
2021/07/28 13:44:23;;;;;;;24.48;5.28;;;23.00;67.80;;;;;;21036724;28;20085;-20
2021/07/28 13:54:24;;;;;;;20.00;5.43;;;23.10;68.10;;;;;;21033483;28;20512;-20
2021/07/28 14:04:25;;;;;;;17.23;4.18;;;23.10;68.10;;;;;;21043715;28;20612;-19
2021/07/28 14:14:25;;;;;;;16.90;4.27;;;23.10;67.90;;;;;;21040974;28;20097;-19
2021/07/28 14:24:26;;;;;;;21.98;5.38;;;23.10;67.90;;;;;;21048588;28;20210;-19
2021/07/28 14:34:27;;;;;;;30.92;5.90;;;23.20;67.90;;;;;;21037411;28;20111;-19
2021/07/28 14:44:27;;;;;;;19.80;6.03;;;23.20;68.00;;;;;;21036641;28;20031;-19
2021/07/28 14:54:28;;;;;;;19.33;4.72;;;23.20;68.00;;;;;;21027105;28;20085;-21
2021/07/28 15:04:29;;;;;;;25.85;5.43;;;23.20;67.80;;;;;;20999063;28;20039;-21
2021/07/28 15:14:30;;;;;;;18.05;5.60;;;23.30;67.60;;;;;;21028672;28;20039;-20
2021/07/28 15:24:30;;;;;;;33.67;6.63;;;23.30;67.40;;;;;;21015132;28;20027;-20
2021/07/28 15:34:31;;;;;;;23.90;6.40;;;23.30;67.40;;;;;;21034214;28;20028;-19
2021/07/28 15:44:31;;;;;;;22.13;6.40;;;23.30;67.30;;;;;;21019968;28;20047;-19
2021/07/28 15:54:32;;;;;;;25.88;5.53;;;23.40;67.70;;;;;;21036878;28;20362;-21
2021/07/28 16:04:32;;;;;;;17.10;5.05;;;23.40;67.00;;;;;;21029329;28;20043;-21
2021/07/28 16:14:59;;;;;;;11.63;4.78;;;23.40;66.90;;;;;;21019576;28;20025;-21
2021/07/28 16:25:01;;;;;;;11.35;4.22;;;23.40;66.70;;;;;;21028902;28;20233;-21
2021/07/28 16:35:01;;;;;;;15.07;4.43;;;23.40;66.80;;;;;;21062484;28;20438;-21
2021/07/28 16:45:02;;;;;;;15.85;4.78;;;23.30;66.80;;;;;;21059767;28;20051;-21
2021/07/28 16:55:03;;;;;;;12.60;5.07;;;23.40;66.90;;;;;;21067005;28;20036;-21
2021/07/28 17:05:05;;;;;;;22.33;5.47;;;23.40;67.00;;;;;;21051311;28;20178;-21
2021/07/28 17:15:07;;;;;;;15.18;4.32;;;23.40;67.20;;;;;;21058296;28;20395;-21
2021/07/28 17:25:10;;;;;;;10.75;3.05;;;23.50;62.40;;;;;;21074603;28;20032;-21
2021/07/28 17:35:20;;;;;;;11.05;2.60;;;23.50;57.30;;;;;;21048627;28;20074;-20
2021/07/28 17:45:21;;;;;;;4.63;2.70;;;23.50;58.20;;;;;;21060561;28;20488;-20
2021/07/28 17:55:21;;;;;;;10.27;2.70;;;23.30;57.50;;;;;;21058652;28;20103;-20
2021/07/28 18:05:22;;;;;;;11.53;2.53;;;23.20;58.60;;;;;;21058610;28;20040;-20
2021/07/28 18:15:22;;;;;;;7.05;3.42;;;23.20;58.70;;;;;;21010279;28;20482;-20
2021/07/28 18:25:23;;;;;;;6.00;2.50;;;23.10;57.30;;;;;;21074595;28;20024;-22
2021/07/28 18:35:27;;;;;;;26.08;3.30;;;23.10;55.80;;;;;;21082864;28;20528;-19
2021/07/28 18:45:28;;;;;;;9.48;2.45;;;23.00;57.30;;;;;;21077729;28;20024;-21
2021/07/28 18:55:28;;;;;;;9.48;3.33;;;23.00;58.60;;;;;;21058269;28;20052;-21
2021/07/28 19:05:29;;;;;;;15.10;2.60;;;23.00;59.50;;;;;;21040272;28;20044;-20
2021/07/28 19:15:29;;;;;;;8.05;2.60;;;23.00;59.30;;;;;;21077912;22;20040;-18
2021/07/28 19:25:30;;;;;;;6.13;2.37;;;23.00;58.80;;;;;;21069887;28;20034;-19
2021/07/28 19:35:31;;;;;;;17.67;2.80;;;23.10;59.40;;;;;;21069036;28;20047;-20
2021/07/28 19:45:32;;;;;;;14.95;3.40;;;23.00;60.30;;;;;;21070281;28;20034;-20
2021/07/28 19:55:32;;;;;;;6.63;2.50;;;23.00;60.20;;;;;;21065850;28;20031;-20
2021/07/28 20:05:33;;;;;;;6.07;2.33;;;23.10;60.40;;;;;;21063498;28;20059;-19
2021/07/28 20:15:34;;;;;;;10.48;2.63;;;23.10;60.60;;;;;;21066496;28;20481;-19
2021/07/28 20:25:34;;;;;;;9.53;2.20;;;23.10;60.70;;;;;;21080546;28;20032;-19
2021/07/28 20:35:35;;;;;;;8.57;2.77;;;23.10;60.90;;;;;;21080040;28;20519;-20
2021/07/28 20:45:36;;;;;;;7.53;2.00;;;23.10;61.10;;;;;;21079590;28;20468;-19
2021/07/28 20:55:37;;;;;;;3.88;1.88;;;23.00;61.10;;;;;;21078029;28;20052;-20
2021/07/28 21:05:38;;;;;;;14.90;2.63;;;23.10;61.30;;;;;;21078545;28;20047;-19
2021/07/28 21:15:38;;;;;;;12.65;2.78;;;23.20;61.40;;;;;;21075572;28;20024;-19
2021/07/28 21:25:39;;;;;;;7.15;1.70;;;23.20;61.20;;;;;;21074797;28;20028;-19
2021/07/28 21:35:40;;;;;;;12.75;2.28;;;23.10;61.30;;;;;;21074930;28;20182;-19
2021/07/28 21:45:56;;;;;;;5.55;1.65;;;23.20;61.50;;;;;;21084136;28;20028;-20
2021/07/28 21:56:20;;;;;;;4.45;1.70;;;23.10;61.50;;;;;;21076722;28;20028;-20
2021/07/28 22:06:21;;;;;;;5.28;2.13;;;23.10;61.80;;;;;;21062514;28;20645;-19
2021/07/28 22:16:21;;;;;;;7.47;2.60;;;23.10;62.70;;;;;;21068337;28;20392;-19
2021/07/28 22:26:22;;;;;;;10.43;2.20;;;23.10;61.90;;;;;;21070670;28;20032;-19
2021/07/28 22:36:22;;;;;;;5.93;2.28;;;23.10;61.10;;;;;;21072035;28;20023;-20
2021/07/28 22:46:23;;;;;;;3.55;1.65;;;23.10;61.60;;;;;;21077268;28;20028;-20
2021/07/28 22:56:29;;;;;;;3.78;2.17;;;23.10;61.80;;;;;;21069861;28;20049;-20
2021/07/28 23:16:42;;;;;;;5.65;1.92;;;23.10;61.90;;;;;;21067022;28;20039;-19
2021/07/28 23:26:43;;;;;;;5.57;2.50;;;23.00;62.10;;;;;;21068284;28;20044;-19
2021/07/28 23:36:43;;;;;;;3.25;1.85;;;23.00;62.00;;;;;;21063511;28;20161;-19
2021/07/28 23:46:44;;;;;;;3.17;1.48;;;23.00;62.10;;;;;;21066577;28;20027;-19
2021/07/28 23:56:45;;;;;;;3.85;1.60;;;23.00;62.00;;;;;;21066819;28;20123;-19
